Time;durP1;ratioP1;P1;durP2;ratioP2;P2;SDS_P1;SDS_P2;PMS_P1;PMS_P2;Temp;Humidity;BMP_temperature;BMP_pressure;BME280_temperature;BME280_humidity;BME280_pressure;Samples;Min_cycle;Max_cycle;Signal;HPM_P1;HPM_P2
2022/12/19 00:02:13;;;;;;;18.58;8.45;;;;;;;-1.12;93.26;101504.09;5212640;28;20063;-76
2022/12/19 00:04:43;;;;;;;18.50;8.48;;;;;;;-1.10;93.84;101494.78;5209165;28;20021;-73
2022/12/19 00:07:14;;;;;;;18.65;8.05;;;;;;;-1.09;94.08;101494.81;5202423;28;20044;-75
2022/12/19 00:09:44;;;;;;;17.55;7.90;;;;;;;-1.04;94.01;101488.09;5204264;28;20648;-75
2022/12/19 00:12:14;;;;;;;14.80;7.20;;;;;;;-1.11;93.20;101500.72;5213934;28;20047;-75
2022/12/19 00:14:46;;;;;;;18.25;8.02;;;;;;;-1.04;93.50;101489.81;5207729;28;20025;-75
2022/12/19 00:17:16;;;;;;;17.58;7.80;;;;;;;-1.05;93.61;101490.63;5206712;28;20482;-75
2022/12/19 00:19:46;;;;;;;18.77;7.80;;;;;;;-0.95;93.68;101487.44;5203602;28;20040;-75
2022/12/19 00:22:19;;;;;;;17.60;7.97;;;;;;;-0.99;94.34;101495.91;5199805;28;20083;-75
2022/12/19 00:24:50;;;;;;;14.73;6.90;;;;;;;-1.03;93.88;101496.66;5204754;28;20069;-74
2022/12/19 00:27:20;;;;;;;17.10;8.05;;;;;;;-0.98;93.34;101490.84;5207872;28;20469;-75
2022/12/19 00:29:50;;;;;;;16.30;7.75;;;;;;;-0.97;93.90;101491.69;5193302;28;20025;-75
2022/12/19 00:32:20;;;;;;;15.02;7.85;;;;;;;-0.89;94.44;101493.59;5197460;28;20071;-76
2022/12/19 00:34:51;;;;;;;16.38;8.25;;;;;;;-0.99;93.92;101491.66;5206875;28;20095;-75
2022/12/19 00:37:21;;;;;;;15.00;7.72;;;;;;;-0.95;94.23;101490.00;5202152;28;20025;-75
2022/12/19 00:39:51;;;;;;;17.00;7.60;;;;;;;-0.88;94.47;101489.34;5204227;28;20032;-75
2022/12/19 00:42:21;;;;;;;16.45;7.95;;;;;;;-0.95;95.17;101470.38;5204527;28;20068;-75
2022/12/19 00:44:52;;;;;;;16.60;8.18;;;;;;;-0.96;94.42;101468.66;5207882;28;20056;-76
2022/12/19 00:47:22;;;;;;;17.83;8.50;;;;;;;-0.98;94.63;101466.88;5201917;28;20033;-75
2022/12/19 00:49:52;;;;;;;17.30;8.25;;;;;;;-0.96;95.19;101470.34;5199446;28;20036;-75
2022/12/19 00:52:22;;;;;;;15.90;8.32;;;;;;;-0.99;95.64;101470.25;5191134;28;20231;-75
2022/12/19 00:54:53;;;;;;;17.05;8.25;;;;;;;-0.99;96.35;101476.28;5194690;28;20034;-76
2022/12/19 00:57:23;;;;;;;17.40;8.27;;;;;;;-0.96;97.16;101468.66;5202260;28;20646;-76
2022/12/19 00:59:53;;;;;;;18.00;8.60;;;;;;;-0.97;97.11;101463.47;5202724;28;20112;-75
2022/12/19 01:02:24;;;;;;;18.42;9.00;;;;;;;-0.99;97.02;101460.00;5200177;28;20037;-75
2022/12/19 01:04:54;;;;;;;18.23;7.75;;;;;;;-0.95;97.37;101464.38;5201736;28;20544;-75
2022/12/19 01:07:24;;;;;;;15.70;8.07;;;;;;;-1.01;97.04;101454.84;5197863;28;20082;-75
2022/12/19 01:09:54;;;;;;;16.35;8.40;;;;;;;-0.99;97.36;101465.13;5191563;28;20033;-77
2022/12/19 01:15:18;;;;;;;19.02;7.72;;;;;;;-0.90;96.90;101455.13;5207024;28;20085;-77
2022/12/19 01:17:49;;;;;;;17.10;8.32;;;;;;;-0.90;96.94;101438.00;5198287;28;20032;-76
2022/12/19 01:20:20;;;;;;;15.18;7.30;;;;;;;-0.87;97.46;101447.47;5208589;28;20030;-75
2022/12/19 01:22:50;;;;;;;15.65;7.75;;;;;;;-0.81;97.04;101438.25;5208544;28;20025;-75
2022/12/19 01:25:21;;;;;;;16.92;8.23;;;;;;;-0.82;97.10;101448.44;5205333;28;20028;-76
2022/12/19 01:27:53;;;;;;;16.33;7.70;;;;;;;-0.83;97.47;101446.72;5204416;28;20697;-77
2022/12/19 01:30:24;;;;;;;15.52;7.22;;;;;;;-0.80;97.96;101450.22;5199340;28;20841;-75
2022/12/19 01:32:55;;;;;;;15.20;7.43;;;;;;;-0.75;96.47;101456.31;5208982;28;20025;-76
2022/12/19 01:35:27;;;;;;;17.20;7.57;;;;;;;-0.71;97.05;101457.28;5221558;28;20021;-75
2022/12/19 01:37:58;;;;;;;19.02;8.15;;;;;;;-0.74;97.42;101463.19;5205757;28;20025;-75
2022/12/19 01:40:28;;;;;;;16.90;8.15;;;;;;;-0.72;97.68;101456.41;5209886;28;20030;-76
2022/12/19 01:43:00;;;;;;;17.95;7.82;;;;;;;-0.63;98.29;101460.88;5215877;28;20060;-75
2022/12/19 01:45:32;;;;;;;16.08;7.70;;;;;;;-0.70;98.00;101459.00;5212782;28;20444;-75
2022/12/19 01:48:13;;;;;;;15.73;7.57;;;;;;;-0.62;98.42;101455.78;5205547;28;20029;-75
2022/12/19 01:50:48;;;;;;;15.23;7.50;;;;;;;-0.64;99.45;101452.31;5211515;28;20024;-75
2022/12/19 01:53:21;;;;;;;17.48;8.18;;;;;;;-0.65;99.46;101448.03;5224239;28;20070;-75
2022/12/19 01:55:53;;;;;;;16.23;8.18;;;;;;;-0.61;100.00;101451.50;5211462;28;20043;-75
2022/12/19 01:58:24;;;;;;;20.15;8.63;;;;;;;-0.57;100.00;101445.66;5212326;28;20025;-76
2022/12/19 02:00:54;;;;;;;17.08;8.27;;;;;;;-0.54;100.00;101440.56;5215116;28;20226;-76
2022/12/19 02:03:28;;;;;;;16.95;8.27;;;;;;;-0.61;100.00;101437.00;5212766;28;20119;-75
2022/12/19 02:05:58;;;;;;;15.85;8.30;;;;;;;-0.61;100.00;101429.28;5213374;28;20616;-76
2022/12/19 02:08:30;;;;;;;17.38;8.25;;;;;;;-0.53;100.00;101425.19;5213955;28;20070;-76
2022/12/19 02:11:00;;;;;;;18.27;8.25;;;;;;;-0.51;100.00;101425.22;5211744;28;20040;-75
2022/12/19 02:13:31;;;;;;;16.40;8.70;;;;;;;-0.50;100.00;101427.84;5208840;28;20633;-75
2022/12/19 02:16:07;;;;;;;18.80;8.55;;;;;;;-0.43;100.00;101431.38;5208123;28;20147;-75
2022/12/19 02:19:07;;;;;;;16.40;8.38;;;;;;;-0.42;100.00;101435.72;5207055;28;20495;-75
2022/12/19 02:21:54;;;;;;;16.23;7.95;;;;;;;-0.33;100.00;101430.75;5206989;28;20033;-76
2022/12/19 02:24:40;;;;;;;19.10;9.57;;;;;;;-0.36;100.00;101438.41;5204711;28;20028;-75
2022/12/19 02:27:13;;;;;;;18.95;8.32;;;;;;;-0.33;100.00;101420.50;5210206;28;20029;-73
2022/12/19 02:30:03;;;;;;;18.40;8.68;;;;;;;-0.31;100.00;101418.81;5217549;28;20036;-75
2022/12/19 02:32:41;;;;;;;19.13;9.13;;;;;;;-0.26;100.00;101417.22;5211436;28;20653;-75
2022/12/19 02:35:39;;;;;;;16.52;8.52;;;;;;;-0.20;100.00;101409.66;5214193;28;20116;-77
2022/12/19 02:38:29;;;;;;;18.98;8.93;;;;;;;-0.21;100.00;101397.66;5209824;28;20078;-76
2022/12/19 02:41:19;;;;;;;17.38;8.60;;;;;;;-0.11;100.00;101386.72;5212380;28;20633;-75
2022/12/19 02:43:54;;;;;;;18.33;8.73;;;;;;;-0.10;100.00;101393.59;5204994;28;20025;-76
2022/12/19 02:46:26;;;;;;;17.75;8.82;;;;;;;-0.07;100.00;101391.09;5208734;28;20029;-75
2022/12/19 02:48:57;;;;;;;16.52;8.48;;;;;;;-0.07;100.00;101389.38;5205245;28;20501;-75
2022/12/19 02:51:27;;;;;;;20.48;8.85;;;;;;;-0.05;100.00;101381.72;5209501;28;20033;-76
2022/12/19 02:53:58;;;;;;;15.23;8.35;;;;;;;-0.01;100.00;101382.66;5203539;28;20043;-76
2022/12/19 02:56:37;;;;;;;19.15;9.45;;;;;;;0.04;100.00;101380.19;5213208;28;20079;-76
2022/12/19 02:59:22;;;;;;;16.48;8.52;;;;;;;-0.02;100.00;101383.50;5213422;28;20502;-75
2022/12/19 03:02:04;;;;;;;;;;;;;;;0.03;100.00;101375.91;5208381;28;20112;-75
2022/12/19 03:05:19;;;;;;;16.60;8.35;;;;;;;0.03;100.00;101381.03;5212420;28;19958;-77
2022/12/19 03:08:06;;;;;;;16.52;7.93;;;;;;;0.00;100.00;101376.69;5156797;28;20023;-75
2022/12/19 03:10:39;;;;;;;13.85;7.03;;;;;;;0.06;100.00;101371.66;5208585;28;20160;-76
2022/12/19 03:13:32;;;;;;;15.27;7.53;;;;;;;0.04;100.00;101373.34;5211084;28;20087;-76
2022/12/19 03:16:06;;;;;;;17.02;8.48;;;;;;;0.07;100.00;101367.41;5207271;28;20044;-76
2022/12/19 03:18:37;;;;;;;16.27;8.30;;;;;;;0.10;100.00;101370.03;5205020;28;20045;-76
2022/12/19 03:21:28;;;;;;;15.52;7.60;;;;;;;0.11;100.00;101367.50;5209589;28;20390;-76
2022/12/19 03:24:00;;;;;;;15.65;8.32;;;;;;;0.15;100.00;101352.97;5209210;28;20048;-73
2022/12/19 03:26:35;;;;;;;14.32;7.75;;;;;;;0.10;100.00;101342.66;5212066;28;20156;-75
2022/12/19 03:29:22;;;;;;;19.38;8.80;;;;;;;0.13;100.00;101341.81;5208031;28;20026;-76
2022/12/19 03:31:54;;;;;;;15.13;8.45;;;;;;;0.15;100.00;101335.88;5206047;28;20053;-75
2022/12/19 03:34:30;;;;;;;15.45;8.25;;;;;;;0.18;100.00;101325.66;5209826;28;20087;-76
2022/12/19 03:37:03;;;;;;;16.30;8.15;;;;;;;0.21;100.00;101328.25;5206225;28;20417;-75
2022/12/19 03:39:34;;;;;;;15.98;8.45;;;;;;;0.20;100.00;101323.13;5208500;28;20032;-76
2022/12/19 03:44:56;;;;;;;16.00;8.15;;;;;;;0.18;100.00;101320.50;5207035;28;20087;-75
2022/12/19 03:47:33;;;;;;;15.68;8.00;;;;;;;0.21;100.00;101319.72;5206318;28;20029;-75
2022/12/19 03:50:05;;;;;;;17.90;8.77;;;;;;;0.24;100.00;101330.88;5203052;28;20037;-75
2022/12/19 03:53:23;;;;;;;16.73;8.02;;;;;;;0.26;100.00;101331.81;5205455;28;20101;-76
2022/12/19 03:56:00;;;;;;;15.70;7.82;;;;;;;0.29;100.00;101337.00;5128167;28;20106;-75
2022/12/19 03:58:34;;;;;;;17.13;8.40;;;;;;;0.29;100.00;101334.44;5147178;28;20057;-75
2022/12/19 04:01:05;;;;;;;19.50;8.37;;;;;;;0.30;100.00;101328.44;5184786;28;20409;-74
2022/12/19 04:03:36;;;;;;;19.52;8.38;;;;;;;0.35;100.00;101320.81;5208300;28;20040;-77
2022/12/19 04:06:07;;;;;;;16.30;8.60;;;;;;;0.35;100.00;101319.09;5211462;28;20238;-75
2022/12/19 04:08:38;;;;;;;16.65;8.60;;;;;;;0.37;100.00;101321.72;5209747;28;20029;-77
2022/12/19 04:11:17;;;;;;;17.38;8.32;;;;;;;0.30;100.00;101312.13;5209611;28;20033;-75
2022/12/19 04:14:03;;;;;;;14.43;7.38;;;;;;;0.30;100.00;101312.13;5209551;28;20059;-75
2022/12/19 04:16:46;;;;;;;16.40;7.85;;;;;;;0.38;100.00;101314.00;5188924;28;20057;-76
2022/12/19 04:19:23;;;;;;;16.48;7.63;;;;;;;0.38;100.00;101303.72;5208684;28;20014;-76
2022/12/19 04:22:21;;;;;;;16.05;7.72;;;;;;;0.34;100.00;101308.78;5201125;28;20036;-75
2022/12/19 04:24:53;;;;;;;15.07;7.82;;;;;;;0.39;100.00;101305.44;5197950;28;20040;-75
2022/12/19 04:27:44;;;;;;;17.77;8.25;;;;;;;0.41;100.00;101296.06;5209378;28;20033;-74
2022/12/19 04:30:16;;;;;;;15.27;7.32;;;;;;;0.39;100.00;101302.88;5208685;28;20025;-75
2022/12/19 04:32:48;;;;;;;15.65;7.85;;;;;;;0.43;100.00;101296.97;5208133;28;20045;-76
2022/12/19 04:35:19;;;;;;;14.57;7.60;;;;;;;0.41;100.00;101296.06;5205082;28;20105;-76
2022/12/19 04:37:50;;;;;;;16.48;8.13;;;;;;;0.42;100.00;101278.94;5206393;28;20124;-77
2022/12/19 04:40:21;;;;;;;14.48;7.88;;;;;;;0.51;100.00;101287.66;5212500;28;20059;-75
2022/12/19 04:42:51;;;;;;;14.43;7.68;;;;;;;0.47;100.00;101264.44;5209407;28;20029;-76
2022/12/19 04:45:21;;;;;;;14.05;7.13;;;;;;;0.50;100.00;101265.38;5212176;28;20083;-75
2022/12/19 04:47:51;;;;;;;14.50;7.78;;;;;;;0.54;100.00;101277.41;5203458;28;20021;-76
2022/12/19 04:50:22;;;;;;;20.15;9.07;;;;;;;0.50;100.00;101267.94;5205979;28;20112;-75
2022/12/19 04:52:52;;;;;;;17.80;7.85;;;;;;;0.54;100.00;101267.13;5203747;28;20026;-76
2022/12/19 04:55:22;;;;;;;16.23;7.88;;;;;;;0.57;100.00;101259.47;5209870;28;20090;-75
2022/12/19 04:57:53;;;;;;;15.15;7.85;;;;;;;0.55;100.00;101248.28;5207220;28;20021;-76
2022/12/19 05:00:23;;;;;;;16.60;8.02;;;;;;;0.61;100.00;101250.97;5212346;28;20050;-76
2022/12/19 05:02:54;;;;;;;18.67;7.55;;;;;;;0.66;100.00;101233.91;5208244;28;20030;-76
2022/12/19 05:05:24;;;;;;;16.75;7.38;;;;;;;0.70;100.00;101243.38;5202635;28;20027;-75
2022/12/19 05:07:58;;;;;;;14.70;7.55;;;;;;;0.70;100.00;101230.53;5207611;28;20024;-75
2022/12/19 05:10:28;;;;;;;15.57;8.70;;;;;;;0.72;100.00;101223.69;5207850;28;20140;-75
2022/12/19 05:12:58;;;;;;;15.38;7.72;;;;;;;0.74;100.00;101211.72;5211542;28;20107;-75
2022/12/19 05:15:28;;;;;;;17.63;7.90;;;;;;;0.74;100.00;101211.72;5203774;28;20041;-75
2022/12/19 05:17:59;;;;;;;15.60;7.53;;;;;;;0.85;100.00;101219.56;5204175;28;20025;-75
2022/12/19 05:20:29;;;;;;;15.02;7.68;;;;;;;0.85;100.00;101215.31;5200542;28;20042;-75
2022/12/19 05:22:59;;;;;;;28.80;11.63;;;;;;;0.97;100.00;101205.19;5200143;28;20036;-76
2022/12/19 05:25:30;;;;;;;13.57;6.65;;;;;;;1.03;100.00;101196.69;5204456;28;20040;-76
2022/12/19 05:28:00;;;;;;;12.43;7.13;;;;;;;1.07;100.00;101199.28;5210054;28;20028;-75
2022/12/19 05:30:30;;;;;;;14.45;7.45;;;;;;;1.10;100.00;101196.75;5203381;28;20056;-77
2022/12/19 05:33:00;;;;;;;14.73;7.05;;;;;;;1.15;100.00;101202.84;5208421;28;20033;-76
2022/12/19 05:35:32;;;;;;;17.02;7.45;;;;;;;1.17;100.00;101198.56;5209113;28;20091;-75
2022/12/19 05:38:03;;;;;;;14.85;7.53;;;;;;;1.12;100.00;101195.09;5202119;28;20030;-77
2022/12/19 05:40:33;;;;;;;15.80;7.82;;;;;;;1.21;100.00;101202.91;5211140;28;20037;-75
2022/12/19 05:43:03;;;;;;;16.63;7.90;;;;;;;1.25;100.00;101201.25;5210759;28;20104;-77
2022/12/19 05:45:34;;;;;;;14.80;7.25;;;;;;;1.23;100.00;101202.94;5203337;28;20536;-76
2022/12/19 05:48:04;;;;;;;14.40;7.55;;;;;;;1.17;100.00;101198.56;5203291;28;20026;-75
2022/12/19 05:50:35;;;;;;;18.33;7.78;;;;;;;1.27;100.00;101184.94;5207325;28;20033;-75
2022/12/19 05:53:05;;;;;;;15.70;7.30;;;;;;;1.26;100.00;101175.50;5196480;28;20029;-77
2022/12/19 05:55:36;;;;;;;16.70;7.82;;;;;;;1.32;100.00;101173.00;5200818;28;20037;-76
2022/12/19 05:58:06;;;;;;;15.30;7.43;;;;;;;1.36;100.00;101163.59;5208997;28;20031;-76
2022/12/19 06:00:37;;;;;;;19.42;8.27;;;;;;;1.33;100.00;101166.13;5206530;28;20118;-76
2022/12/19 06:03:08;;;;;;;15.20;7.60;;;;;;;1.39;100.00;101159.34;5203680;28;20061;-77
2022/12/19 06:05:38;;;;;;;15.05;7.75;;;;;;;1.40;100.00;101163.66;5212574;28;20037;-77
2022/12/19 06:08:09;;;;;;;19.25;7.80;;;;;;;1.46;100.00;101157.69;5210006;28;20511;-76
2022/12/19 06:10:39;;;;;;;15.98;7.78;;;;;;;1.41;100.00;101156.81;5209368;28;20389;-76
2022/12/19 06:13:09;;;;;;;20.08;7.75;;;;;;;1.50;100.00;101150.03;5206280;28;20108;-76
2022/12/19 06:15:39;;;;;;;14.35;7.55;;;;;;;1.60;100.00;101158.72;5201202;28;20055;-76
2022/12/19 06:18:10;;;;;;;13.68;7.40;;;;;;;1.63;100.00;101153.56;5198575;28;20128;-76
2022/12/19 06:20:40;;;;;;;17.35;8.00;;;;;;;1.58;100.00;101160.41;5205875;28;20033;-75
2022/12/19 06:23:10;;;;;;;14.30;7.43;;;;;;;1.64;100.00;101153.59;5201069;28;20033;-76
2022/12/19 06:25:40;;;;;;;15.68;7.53;;;;;;;1.67;100.00;101147.59;5207175;28;20024;-77
2022/12/19 06:28:11;;;;;;;16.90;7.80;;;;;;;1.66;100.00;101151.03;5212090;28;20079;-76
2022/12/19 06:30:42;;;;;;;15.18;7.68;;;;;;;1.64;100.00;101143.31;5214286;28;20474;-75
2022/12/19 06:33:12;;;;;;;15.32;7.80;;;;;;;1.68;100.00;101147.63;5210867;28;20465;-76
2022/12/19 06:35:43;;;;;;;14.98;7.05;;;;;;;1.71;100.00;101142.50;5210918;28;20045;-76
2022/12/19 06:38:13;;;;;;;15.48;7.65;;;;;;;1.75;100.00;101140.81;5203524;28;20025;-76
2022/12/19 06:43:32;;;;;;;14.95;7.85;;;;;;;1.83;100.00;101132.31;5211526;28;20521;-76
2022/12/19 06:46:03;;;;;;;17.33;8.30;;;;;;;1.79;100.00;101118.53;5211666;28;20029;-76
2022/12/19 06:48:33;;;;;;;16.65;7.85;;;;;;;1.82;100.00;101138.31;5210757;28;20174;-76
2022/12/19 06:51:04;;;;;;;15.40;7.82;;;;;;;1.83;100.00;101128.00;5209342;28;20044;-76
2022/12/19 06:53:34;;;;;;;16.88;8.32;;;;;;;1.80;100.00;101138.28;5206466;28;20021;-76
2022/12/19 06:56:05;;;;;;;18.65;8.73;;;;;;;1.77;100.00;101136.53;5211034;28;20033;-76
2022/12/19 06:58:35;;;;;;;19.15;8.73;;;;;;;1.73;100.00;101133.06;5213373;28;20033;-76
2022/12/19 07:01:05;;;;;;;17.27;8.13;;;;;;;1.73;100.00;101127.91;5212908;28;20029;-76
2022/12/19 07:03:39;;;;;;;17.80;8.00;;;;;;;1.73;100.00;101127.91;5208892;28;20044;-75
2022/12/19 07:06:09;;;;;;;16.55;8.45;;;;;;;1.73;100.00;101125.34;5212148;28;20489;-76
2022/12/19 07:08:39;;;;;;;17.58;8.45;;;;;;;1.77;100.00;101115.94;5215619;28;20068;-75
2022/12/19 07:11:10;;;;;;;17.98;8.68;;;;;;;1.82;100.00;101135.75;5213504;28;20086;-75
2022/12/19 07:13:40;;;;;;;15.93;8.25;;;;;;;1.81;100.00;101127.13;5211496;28;20067;-76
2022/12/19 07:16:10;;;;;;;15.80;8.13;;;;;;;1.83;100.00;101128.00;5209818;28;20661;-76
2022/12/19 07:18:41;;;;;;;16.13;8.40;;;;;;;1.81;100.00;101119.41;5212287;28;20033;-73
2022/12/19 07:21:11;;;;;;;17.58;8.30;;;;;;;1.87;100.00;101110.84;5209830;28;20441;-76
2022/12/19 07:23:42;;;;;;;21.23;9.07;;;;;;;1.87;100.00;101113.44;5205755;28;20070;-76
2022/12/19 07:26:13;;;;;;;20.55;9.13;;;;;;;1.87;100.00;101119.47;5213067;28;20040;-75
2022/12/19 07:28:43;;;;;;;16.80;8.88;;;;;;;1.93;100.00;101119.50;5207615;28;20024;-76
2022/12/19 07:31:13;;;;;;;22.15;8.90;;;;;;;1.97;100.00;101122.97;5196805;28;20523;-76
2022/12/19 07:33:44;;;;;;;17.35;9.30;;;;;;;1.96;100.00;101123.84;5199049;28;20055;-76
2022/12/19 07:36:14;;;;;;;22.48;9.57;;;;;;;1.99;100.00;101118.69;5200161;28;20022;-76
2022/12/19 07:38:44;;;;;;;17.90;9.05;;;;;;;1.96;100.00;101118.69;5201793;28;20027;-76
2022/12/19 07:41:15;;;;;;;19.60;9.38;;;;;;;2.02;100.00;101118.72;5213230;28;20474;-76
2022/12/19 07:43:46;;;;;;;20.70;9.50;;;;;;;1.98;100.00;101133.28;5211467;28;20158;-76
2022/12/19 07:46:16;;;;;;;22.50;9.57;;;;;;;2.04;100.00;101127.31;5209047;28;20025;-76
2022/12/19 07:48:47;;;;;;;20.75;10.43;;;;;;;1.98;100.00;101122.97;5209352;28;20315;-76
2022/12/19 07:51:17;;;;;;;19.25;9.25;;;;;;;2.02;100.00;101126.44;5209472;28;20028;-76
2022/12/19 07:53:47;;;;;;;18.15;9.45;;;;;;;2.02;100.00;101129.03;5208373;28;20043;-76
2022/12/19 07:56:17;;;;;;;20.60;9.20;;;;;;;2.02;100.00;101122.13;5206047;28;20031;-76
2022/12/19 07:58:48;;;;;;;17.95;9.18;;;;;;;1.96;100.00;101123.84;5202506;28;20033;-75
2022/12/19 08:01:19;;;;;;;19.33;9.68;;;;;;;1.94;100.00;101130.66;5200498;28;20549;-76
2022/12/19 08:03:50;;;;;;;19.08;9.85;;;;;;;1.99;100.00;101113.53;5203454;28;20548;-76
2022/12/19 08:06:20;;;;;;;18.25;9.10;;;;;;;1.89;100.00;101132.34;5207582;28;20033;-76
2022/12/19 08:08:50;;;;;;;23.23;9.93;;;;;;;1.89;100.00;101135.81;5204451;28;20052;-77
2022/12/19 08:11:25;;;;;;;19.38;9.73;;;;;;;1.90;100.00;101141.81;5213111;28;20029;-77
2022/12/19 08:13:56;;;;;;;20.65;9.60;;;;;;;1.88;100.00;101140.94;5208957;28;20025;-76
2022/12/19 08:16:27;;;;;;;21.50;9.73;;;;;;;1.88;100.00;101146.09;5209233;28;20045;-77
2022/12/19 08:18:57;;;;;;;20.05;9.90;;;;;;;1.95;100.00;101145.25;5206998;28;20643;-74
2022/12/19 08:21:27;;;;;;;27.85;11.65;;;;;;;2.03;100.00;101148.78;5208824;28;20029;-76
2022/12/19 08:23:59;;;;;;;29.25;12.18;;;;;;;2.17;100.00;101145.44;5204115;28;20437;-75
2022/12/19 08:26:29;;;;;;;30.42;12.88;;;;;;;2.10;100.00;101142.81;5210049;28;20024;-76
2022/12/19 08:29:00;;;;;;;26.27;12.30;;;;;;;2.05;100.00;101150.53;5211368;28;20039;-76
2022/12/19 08:31:30;;;;;;;30.85;13.13;;;;;;;2.06;100.00;101141.94;5210605;28;20080;-77
2022/12/19 08:34:00;;;;;;;30.83;12.68;;;;;;;2.15;100.00;101146.31;5207305;28;20080;-77
2022/12/19 08:36:31;;;;;;;22.33;10.80;;;;;;;2.42;100.00;101141.31;5209316;28;20043;-75
2022/12/19 08:39:01;;;;;;;20.10;9.55;;;;;;;2.49;100.00;101140.53;5205796;28;20025;-76
2022/12/19 08:41:32;;;;;;;20.33;9.73;;;;;;;2.54;100.00;101136.25;5207694;28;20627;-77
2022/12/19 08:44:02;;;;;;;20.15;9.70;;;;;;;2.49;100.00;101132.78;5200877;28;20026;-77
2022/12/19 08:46:32;;;;;;;23.77;10.63;;;;;;;2.40;100.00;101130.13;5206101;28;20071;-76
2022/12/19 08:49:03;;;;;;;22.15;9.55;;;;;;;2.25;100.00;101123.19;5208876;28;20049;-76
2022/12/19 08:51:33;;;;;;;22.90;9.55;;;;;;;2.30;100.00;101118.06;5206031;28;20028;-77
2022/12/19 08:54:03;;;;;;;19.48;9.85;;;;;;;2.19;100.00;101112.81;5201547;28;20400;-77
2022/12/19 08:56:34;;;;;;;19.27;9.82;;;;;;;2.20;100.00;101116.25;5206583;28;20039;-77
2022/12/19 08:59:05;;;;;;;21.65;10.35;;;;;;;2.08;100.00;101123.91;5205653;28;20280;-77
2022/12/19 09:01:35;;;;;;;18.25;9.60;;;;;;;2.11;100.00;101114.47;5209068;28;20029;-77
2022/12/19 09:04:05;;;;;;;23.00;10.98;;;;;;;2.25;100.00;101119.72;5207008;28;20111;-76
2022/12/19 09:06:36;;;;;;;22.60;10.73;;;;;;;2.38;100.00;101103.47;5205568;28;20422;-76
2022/12/19 09:09:06;;;;;;;24.42;11.95;;;;;;;2.41;100.00;101111.22;5200187;28;20025;-77
2022/12/19 09:11:36;;;;;;;23.40;11.30;;;;;;;2.46;100.00;101106.94;5210397;28;20482;-77
2022/12/19 09:14:07;;;;;;;23.15;11.18;;;;;;;2.51;100.00;101105.28;5209950;28;20048;-77
2022/12/19 09:16:37;;;;;;;24.42;12.50;;;;;;;2.38;100.00;101095.75;5204425;28;21540;-77
2022/12/19 09:19:14;;;;;;;25.13;11.43;;;;;;;2.32;100.00;101099.13;5209690;28;20040;-77
2022/12/19 09:21:44;;;;;;;23.33;11.20;;;;;;;2.44;100.00;101100.91;5205040;28;20029;-76
2022/12/19 09:24:14;;;;;;;24.08;11.30;;;;;;;2.49;100.00;101096.66;5201234;28;20399;-77
2022/12/19 09:26:45;;;;;;;28.30;12.63;;;;;;;2.49;100.00;101107.00;5208819;28;20025;-77
2022/12/19 09:29:15;;;;;;;24.42;11.98;;;;;;;2.51;100.00;101100.13;5201308;28;20026;-77
2022/12/19 09:31:45;;;;;;;23.55;11.80;;;;;;;2.48;100.00;101100.94;5203955;28;20037;-77
2022/12/19 09:34:16;;;;;;;26.77;11.75;;;;;;;2.39;100.00;101094.88;5209688;28;20551;-77
2022/12/19 09:36:46;;;;;;;25.77;11.23;;;;;;;2.67;100.00;101089.00;5202712;28;20035;-77
2022/12/19 09:39:17;;;;;;;29.38;11.85;;;;;;;2.74;100.00;101080.44;5207119;28;20560;-77
2022/12/19 09:42:13;;;;;;;28.02;13.52;;;;;;;2.78;100.00;101084.75;5213798;28;20083;-77
2022/12/19 09:45:13;;;;;;;26.95;12.82;;;;;;;2.68;100.00;101072.69;5214348;28;20067;-76
2022/12/19 09:47:47;;;;;;;26.70;11.55;;;;;;;2.77;100.00;101075.28;5205361;28;20036;-77
2022/12/19 09:50:49;;;;;;;29.67;12.73;;;;;;;2.83;100.00;101078.75;5215545;28;20025;-76
2022/12/19 09:53:32;;;;;;;27.85;12.48;;;;;;;2.79;100.00;101070.97;5200056;28;20407;-75
2022/12/19 09:56:11;;;;;;;25.38;12.80;;;;;;;2.75;100.00;101070.13;5208104;28;20158;-76
2022/12/19 09:58:48;;;;;;;25.35;11.52;;;;;;;3.04;100.00;101062.47;5218314;28;20552;-77
2022/12/19 10:01:23;;;;;;;23.23;11.38;;;;;;;3.06;100.00;101060.75;5207573;28;20029;-77
2022/12/19 10:04:02;;;;;;;20.85;10.93;;;;;;;3.10;100.00;101054.72;5214927;28;20021;-77
2022/12/19 10:06:32;;;;;;;24.35;11.25;;;;;;;3.13;100.00;101057.31;5213330;28;20044;-77
2022/12/19 10:09:03;;;;;;;19.40;10.32;;;;;;;3.07;100.00;101057.31;5207788;28;20021;-77
2022/12/19 10:11:45;;;;;;;21.70;10.18;;;;;;;3.23;100.00;101046.16;5213566;28;20033;-77
2022/12/19 10:14:15;;;;;;;17.60;9.10;;;;;;;3.31;100.00;101047.00;5211900;28;20038;-77
2022/12/19 10:17:23;;;;;;;23.65;9.18;;;;;;;3.60;100.00;101031.53;5208608;28;20029;-77
2022/12/19 10:20:21;;;;;;;16.08;7.68;;;;;;;3.89;100.00;101034.94;5207067;28;20033;-77
2022/12/19 10:23:13;;;;;;;16.85;8.38;;;;;;;3.95;100.00;101037.50;5195724;28;20045;-77
2022/12/19 10:25:59;;;;;;;18.08;8.35;;;;;;;4.00;100.00;101035.81;5211899;28;20113;-78
2022/12/19 10:28:51;;;;;;;17.20;8.82;;;;;;;4.12;100.00;101040.94;5209872;28;20063;-76
2022/12/19 10:31:32;;;;;;;17.05;9.23;;;;;;;4.15;100.00;101029.72;5199718;28;20041;-77
2022/12/19 10:34:18;;;;;;;17.40;9.18;;;;;;;4.19;100.00;101021.97;5203362;28;20059;-77
2022/12/19 10:37:01;;;;;;;18.17;9.85;;;;;;;4.13;100.00;101029.72;5197194;28;20561;-77
2022/12/19 10:40:02;;;;;;;22.15;10.18;;;;;;;4.12;100.00;101021.97;5207616;28;20040;-77
2022/12/19 10:42:45;;;;;;;21.17;10.18;;;;;;;4.16;100.00;101014.19;5204349;28;20052;-78
2022/12/19 10:45:17;;;;;;;20.88;10.63;;;;;;;4.25;100.00;101018.47;5207617;28;20025;-77
2022/12/19 10:47:50;;;;;;;17.88;10.27;;;;;;;4.19;100.00;101013.34;5203790;28;20049;-78
2022/12/19 10:50:28;;;;;;;18.95;9.95;;;;;;;4.14;100.00;101015.09;5212039;28;20032;-76
2022/12/19 10:53:07;;;;;;;17.50;9.70;;;;;;;4.14;100.00;101003.00;5214064;28;20506;-78
2022/12/19 10:55:42;;;;;;;21.65;10.50;;;;;;;4.26;100.00;101005.56;5213658;28;20483;-77
2022/12/19 10:58:25;;;;;;;18.92;10.95;;;;;;;4.22;100.00;100997.78;5212142;28;20526;-78
2022/12/19 11:00:58;;;;;;;18.85;11.15;;;;;;;4.26;100.00;100997.78;5206119;28;20102;-78
2022/12/19 11:03:30;;;;;;;22.30;11.13;;;;;;;4.26;100.00;100992.63;5210220;28;20681;-77
2022/12/19 11:06:01;;;;;;;24.10;12.18;;;;;;;4.20;100.00;100992.66;5206718;28;20045;-77
2022/12/19 11:08:36;;;;;;;23.35;11.98;;;;;;;4.31;100.00;100982.25;5204141;28;20664;-77
2022/12/19 11:11:07;;;;;;;22.27;12.13;;;;;;;4.35;100.00;100978.78;5208041;28;20063;-77
2022/12/19 11:13:41;;;;;;;24.90;12.40;;;;;;;4.41;100.00;100968.41;5208094;28;20069;-76
2022/12/19 11:16:19;;;;;;;23.30;12.02;;;;;;;4.37;100.00;100967.56;5200728;28;20041;-77
2022/12/19 11:18:49;;;;;;;23.55;12.23;;;;;;;4.37;100.00;100957.22;5193766;28;20639;-77
2022/12/19 11:21:28;;;;;;;23.42;12.45;;;;;;;4.42;100.00;100950.28;5204765;28;20115;-76
2022/12/19 11:23:58;;;;;;;22.25;12.38;;;;;;;4.46;100.00;100952.00;5195715;28;20037;-76
2022/12/19 11:26:40;;;;;;;26.15;13.10;;;;;;;4.47;100.00;100945.94;5208082;28;20049;-77
2022/12/19 11:29:28;;;;;;;24.63;12.50;;;;;;;4.55;100.00;100944.19;5207357;28;20041;-77
2022/12/19 11:32:00;;;;;;;26.70;13.10;;;;;;;4.55;100.00;100941.59;5203832;28;20029;-78
2022/12/19 11:34:35;;;;;;;28.98;15.05;;;;;;;4.54;100.00;100939.00;5206582;28;20605;-77
2022/12/19 11:37:22;;;;;;;41.55;21.63;;;;;;;4.51;100.00;100939.91;5202592;28;20030;-77
2022/12/19 11:40:03;;;;;;;36.40;17.88;;;;;;;4.57;100.00;100939.88;5207173;28;20670;-78
2022/12/19 11:42:49;;;;;;;30.88;15.82;;;;;;;4.47;100.00;100942.50;5204478;28;20036;-78
2022/12/19 11:45:33;;;;;;;29.65;14.07;;;;;;;4.62;100.00;100945.88;5203640;28;20068;-76
2022/12/19 11:48:41;;;;;;;27.58;13.73;;;;;;;4.55;100.00;100933.84;5203137;28;20021;-78
2022/12/19 11:51:20;;;;;;;25.85;12.93;;;;;;;4.81;100.00;100928.50;5207140;28;20038;-78
2022/12/19 11:54:32;;;;;;;31.30;14.32;;;;;;;4.79;100.00;100925.06;5207923;28;21938;-78
2022/12/19 11:57:02;;;;;;;25.70;12.82;;;;;;;4.88;100.00;100920.69;5165025;28;20026;-77